Depoe Bay, Oregon
Current Conditions -  °F | °C
As of 1:35 AM on Thursday 18 Dec 2014 (Local Time) from KONP Reporting Station
Broken Clouds Broken Clouds  
Wind Chill: 43°   Ceiling: 3600
Heat Index: 46°   Visibility: 10mi
Dew Point: 45°   Wind: 7mph
Humidity: 93%   Direction: 90°E
Pressure: 29.96"   Gusts: NA
Location:  44.81°N, 124.06°W
Report Text: KONP 180935Z AUTO 09006KT 10SM SCT011 SCT016 BKN036 08/07 A2996 RMK AO2
Loading
Personal Weather Stations






























Interactive Weather Map New forecast layout! Learn more

10-Day Weather Forecast

Advertisements
Track Severe Weather on mobile